sensor_id;sensor_type;location;lat;lon;timestamp;pressure;altitude;pressure_sealevel;temperature;humidity
7586;BME280;12459;42.646;23.292;2023-01-15T00:01:45;94043.97;;;9.00;100.00
7586;BME280;12459;42.646;23.292;2023-01-15T00:16:49;94046.63;;;9.00;100.00
7586;BME280;12459;42.646;23.292;2023-01-15T00:32:00;94045.13;;;8.99;100.00
7586;BME280;12459;42.646;23.292;2023-01-15T00:47:03;94043.59;;;8.98;100.00
7586;BME280;12459;42.646;23.292;2023-01-15T01:02:04;94046.63;;;9.00;100.00
7586;BME280;12459;42.646;23.292;2023-01-15T01:17:06;94035.56;;;8.98;100.00
7586;BME280;12459;42.646;23.292;2023-01-15T01:32:08;94019.91;;;8.96;100.00
7586;BME280;12459;42.646;23.292;2023-01-15T01:47:13;94022.19;;;8.98;100.00
7586;BME280;12459;42.646;23.292;2023-01-15T02:02:16;94010.75;;;8.93;100.00
7586;BME280;12459;42.646;23.292;2023-01-15T02:17:23;94011.88;;;8.96;100.00
7586;BME280;12459;42.646;23.292;2023-01-15T02:47:34;93989.75;;;8.95;100.00
7586;BME280;12459;42.646;23.292;2023-01-15T03:02:39;93983.63;;;8.95;100.00
7586;BME280;12459;42.646;23.292;2023-01-15T03:17:45;93993.94;;;8.93;100.00
7586;BME280;12459;42.646;23.292;2023-01-15T03:32:50;94001.19;;;8.92;100.00
7586;BME280;12459;42.646;23.292;2023-01-15T04:02:54;94000.44;;;8.92;100.00
7586;BME280;12459;42.646;23.292;2023-01-15T04:17:56;93992.41;;;8.88;100.00
7586;BME280;12459;42.646;23.292;2023-01-15T04:32:58;94004.25;;;8.94;100.00
7586;BME280;12459;42.646;23.292;2023-01-15T04:48:00;94005.78;;;8.92;100.00
7586;BME280;12459;42.646;23.292;2023-01-15T05:03:01;94025.63;;;8.91;100.00
7586;BME280;12459;42.646;23.292;2023-01-15T05:18:03;94006.94;;;8.87;100.00
7586;BME280;12459;42.646;23.292;2023-01-15T05:33:05;94014.19;;;8.87;100.00
7586;BME280;12459;42.646;23.292;2023-01-15T05:48:06;94011.50;;;8.87;100.00
7586;BME280;12459;42.646;23.292;2023-01-15T06:03:08;94027.91;;;8.85;100.00
7586;BME280;12459;42.646;23.292;2023-01-15T06:18:10;94026.78;;;8.86;100.00
7586;BME280;12459;42.646;23.292;2023-01-15T06:33:11;94025.25;;;8.85;100.00
7586;BME280;12459;42.646;23.292;2023-01-15T06:48:13;94024.47;;;8.85;100.00
7586;BME280;12459;42.646;23.292;2023-01-15T07:03:15;94014.94;;;8.87;100.00
7586;BME280;12459;42.646;23.292;2023-01-15T07:18:16;94027.53;;;8.90;100.00
7586;BME280;12459;42.646;23.292;2023-01-15T07:33:18;94031.00;;;8.98;100.00
7586;BME280;12459;42.646;23.292;2023-01-15T07:48:20;94035.94;;;9.00;100.00
7586;BME280;12459;42.646;23.292;2023-01-15T08:03:40;94024.13;;;9.15;100.00
7586;BME280;12459;42.646;23.292;2023-01-15T08:18:43;94028.31;;;9.26;100.00
7586;BME280;12459;42.646;23.292;2023-01-15T08:33:47;94039.00;;;9.58;100.00
7586;BME280;12459;42.646;23.292;2023-01-15T08:48:48;94036.72;;;9.25;100.00
7586;BME280;12459;42.646;23.292;2023-01-15T09:19:57;94026.41;;;9.31;100.00
7586;BME280;12459;42.646;23.292;2023-01-15T09:34:58;94013.78;;;9.31;100.00
7586;BME280;12459;42.646;23.292;2023-01-15T10:35:30;93904.53;;;9.33;100.00
7586;BME280;12459;42.646;23.292;2023-01-15T10:50:35;93877.78;;;9.33;100.00
7586;BME280;12459;42.646;23.292;2023-01-15T11:05:37;93854.88;;;9.32;100.00
7586;BME280;12459;42.646;23.292;2023-01-15T11:20:43;93831.56;;;9.33;100.00
7586;BME280;12459;42.646;23.292;2023-01-15T11:35:52;93825.81;;;9.34;100.00
7586;BME280;12459;42.646;23.292;2023-01-15T11:51:12;93799.09;;;9.34;100.00
7586;BME280;12459;42.646;23.292;2023-01-15T12:06:14;93800.59;;;9.35;100.00
7586;BME280;12459;42.646;23.292;2023-01-15T12:21:21;93776.16;;;9.33;100.00
7586;BME280;12459;42.646;23.292;2023-01-15T12:52:35;93751.34;;;9.29;100.00
7586;BME280;12459;42.646;23.292;2023-01-15T13:07:41;93730.34;;;9.31;100.00
7586;BME280;12459;42.646;23.292;2023-01-15T13:23:33;93723.84;;;9.32;100.00
7586;BME280;12459;42.646;23.292;2023-01-15T13:38:05;93708.94;;;9.31;100.00
7586;BME280;12459;42.646;23.292;2023-01-15T13:53:16;93703.59;;;9.31;100.00
7586;BME280;12459;42.646;23.292;2023-01-15T14:08:22;93689.06;;;9.32;100.00
7586;BME280;12459;42.646;23.292;2023-01-15T14:23:47;93698.63;;;9.33;100.00
7586;BME280;12459;42.646;23.292;2023-01-15T14:38:54;93700.16;;;9.31;100.00
7586;BME280;12459;42.646;23.292;2023-01-15T14:54:07;93686.03;;;9.30;100.00
7586;BME280;12459;42.646;23.292;2023-01-15T15:09:13;93686.84;;;9.23;100.00
7586;BME280;12459;42.646;23.292;2023-01-15T15:24:22;93688.78;;;9.16;100.00
7586;BME280;12459;42.646;23.292;2023-01-15T15:39:27;93686.91;;;9.13;100.00
7586;BME280;12459;42.646;23.292;2023-01-15T15:54:30;93692.28;;;9.06;100.00
7586;BME280;12459;42.646;23.292;2023-01-15T16:09:33;93683.13;;;9.03;100.00
7586;BME280;12459;42.646;23.292;2023-01-15T16:24:34;93687.75;;;8.95;100.00
7586;BME280;12459;42.646;23.292;2023-01-15T16:54:38;93710.28;;;8.94;100.00
7586;BME280;12459;42.646;23.292;2023-01-15T17:09:44;93693.88;;;8.89;100.00
7586;BME280;12459;42.646;23.292;2023-01-15T17:24:48;93689.69;;;8.88;100.00
7586;BME280;12459;42.646;23.292;2023-01-15T17:39:50;93687.81;;;8.85;100.00
7586;BME280;12459;42.646;23.292;2023-01-15T17:54:52;93677.88;;;8.85;100.00
7586;BME280;12459;42.646;23.292;2023-01-15T18:10:12;93669.88;;;8.82;100.00
7586;BME280;12459;42.646;23.292;2023-01-15T18:25:19;93673.31;;;8.82;100.00
7586;BME280;12459;42.646;23.292;2023-01-15T18:40:20;93676.34;;;8.84;100.00
7586;BME280;12459;42.646;23.292;2023-01-15T18:55:27;93655.00;;;8.81;100.00
7586;BME280;12459;42.646;23.292;2023-01-15T19:10:29;93654.25;;;8.77;100.00
7586;BME280;12459;42.646;23.292;2023-01-15T19:25:38;93665.69;;;8.77;100.00
7586;BME280;12459;42.646;23.292;2023-01-15T19:40:40;93672.59;;;8.75;100.00
7586;BME280;12459;42.646;23.292;2023-01-15T19:55:42;93656.94;;;8.73;100.00
7586;BME280;12459;42.646;23.292;2023-01-15T20:10:46;93652.75;;;8.72;100.00
7586;BME280;12459;42.646;23.292;2023-01-15T20:25:48;93658.84;;;8.73;100.00
7586;BME280;12459;42.646;23.292;2023-01-15T20:40:52;93641.69;;;8.70;100.00
7586;BME280;12459;42.646;23.292;2023-01-15T20:55:54;93641.69;;;8.70;100.00
7586;BME280;12459;42.646;23.292;2023-01-15T21:10:58;93642.44;;;8.71;100.00
7586;BME280;12459;42.646;23.292;2023-01-15T21:26:00;93635.22;;;8.68;100.00
7586;BME280;12459;42.646;23.292;2023-01-15T21:41:08;93623.00;;;8.67;100.00
7586;BME280;12459;42.646;23.292;2023-01-15T21:56:11;93610.81;;;8.66;100.00
7586;BME280;12459;42.646;23.292;2023-01-15T22:11:12;93594.78;;;8.66;100.00
7586;BME280;12459;42.646;23.292;2023-01-15T22:26:17;93591.34;;;8.65;100.00
7586;BME280;12459;42.646;23.292;2023-01-15T22:41:19;93579.91;;;8.61;100.00
7586;BME280;12459;42.646;23.292;2023-01-15T22:56:41;93572.28;;;8.63;100.00
7586;BME280;12459;42.646;23.292;2023-01-15T23:11:43;93564.25;;;8.63;100.00
7586;BME280;12459;42.646;23.292;2023-01-15T23:26:44;93547.50;;;8.59;100.00
7586;BME280;12459;42.646;23.292;2023-01-15T23:41:46;93545.97;;;8.58;100.00
7586;BME280;12459;42.646;23.292;2023-01-15T23:57:06;93539.13;;;8.57;100.00
